Time,TemperatureF,DewpointF,PressureIn,WindDirection,WindDirectionDegrees,WindSpeedMPH,WindSpeedGustMPH,Humidity,HourlyPrecipIn,Conditions,Clouds,dailyrainin,SoftwareType,DateUTC
2013-01-23 00:04:00,-13.9,-18.3,30.74,WSW,254,3.0,4.0,80,0.00,,---,0.00,VWS V13.01,2013-01-23 06:04:00,
2013-01-23 00:10:00,-14.0,-18.4,30.74,WSW,256,1.0,5.0,80,0.00,,---,0.00,VWS V13.01,2013-01-23 06:10:00,
2013-01-23 00:15:00,-14.0,-18.1,30.74,WSW,256,1.0,5.0,81,0.00,,---,0.00,VWS V13.01,2013-01-23 06:15:00,
2013-01-23 00:20:00,-13.9,-18.0,30.71,WSW,256,1.0,3.0,81,0.00,,---,0.00,VWS V13.01,2013-01-23 06:20:00,
2013-01-23 00:25:00,-13.8,-17.9,30.71,WSW,254,3.0,6.0,81,0.00,,---,0.00,VWS V13.01,2013-01-23 06:25:00,
2013-01-23 00:30:00,-13.6,-17.7,30.71,WSW,252,3.0,6.0,81,0.00,,---,0.00,VWS V13.01,2013-01-23 06:30:00,
2013-01-23 00:35:00,-13.6,-17.7,30.70,WSW,257,1.0,5.0,81,0.00,,---,0.00,VWS V13.01,2013-01-23 06:35:00,
2013-01-23 00:40:00,-13.6,-17.7,30.70,West,259,2.0,5.0,81,0.00,,---,0.00,VWS V13.01,2013-01-23 06:40:00,
2013-01-23 00:46:00,-13.5,-17.6,30.69,WSW,254,3.0,5.0,81,0.00,,---,0.00,VWS V13.01,2013-01-23 06:46:00,
2013-01-23 00:51:00,-13.5,-17.6,30.69,WSW,256,1.0,6.0,81,0.00,,---,0.00,VWS V13.01,2013-01-23 06:51:00,
2013-01-23 00:56:00,-13.5,-17.6,30.69,West,261,4.0,6.0,81,0.00,,---,0.00,VWS V13.01,2013-01-23 06:56:00,
2013-01-23 01:01:00,-13.4,-17.5,30.69,WSW,257,2.0,6.0,81,0.00,,---,0.00,VWS V13.01,2013-01-23 07:01:00,
2013-01-23 01:06:00,-13.4,-17.5,30.69,WSW,253,2.0,6.0,81,0.00,,---,0.00,VWS V13.01,2013-01-23 07:06:00,
2013-01-23 01:11:00,-13.4,-17.5,30.69,WSW,257,2.0,6.0,81,0.00,,---,0.00,VWS V13.01,2013-01-23 07:11:00,
2013-01-23 01:16:00,-13.5,-17.6,30.67,WSW,254,2.0,6.0,81,0.00,,---,0.00,VWS V13.01,2013-01-23 07:16:00,
2013-01-23 01:21:00,-13.4,-17.5,30.67,West,269,3.0,6.0,81,0.00,,---,0.00,VWS V13.01,2013-01-23 07:21:00,
2013-01-23 01:27:00,-13.3,-17.5,30.67,West,266,3.0,6.0,81,0.00,,---,0.00,VWS V13.01,2013-01-23 07:27:00,
2013-01-23 01:33:00,-13.4,-17.5,30.67,West,263,1.0,4.0,81,0.00,,---,0.00,VWS V13.01,2013-01-23 07:33:00,
2013-01-23 01:38:00,-13.5,-17.6,30.67,WSW,248,2.0,5.0,81,0.00,,---,0.00,VWS V13.01,2013-01-23 07:38:00,
2013-01-23 01:43:00,-13.6,-17.7,30.67,WSW,244,1.0,5.0,81,0.00,,---,0.00,VWS V13.01,2013-01-23 07:43:00,
2013-01-23 01:48:00,-13.7,-17.8,30.67,WSW,252,3.0,4.0,81,0.00,,---,0.00,VWS V13.01,2013-01-23 07:48:00,
2013-01-23 01:53:00,-13.8,-17.9,30.67,WSW,253,1.0,4.0,81,0.00,,---,0.00,VWS V13.01,2013-01-23 07:53:00,
2013-01-23 01:58:00,-13.7,-17.8,30.67,WSW,238,1.0,5.0,81,0.00,,---,0.00,VWS V13.01,2013-01-23 07:58:00,
2013-01-23 02:03:00,-13.8,-17.9,30.65,WSW,241,1.0,4.0,81,0.00,,---,0.00,VWS V13.01,2013-01-23 08:03:00,
2013-01-23 02:09:00,-13.8,-17.9,30.65,WSW,240,1.0,4.0,81,0.00,,---,0.00,VWS V13.01,2013-01-23 08:09:00,
2013-01-23 02:14:00,-13.9,-18.0,30.65,WSW,244,2.0,4.0,81,0.00,,---,0.00,VWS V13.01,2013-01-23 08:14:00,
2013-01-23 02:19:00,-13.9,-18.0,30.66,WSW,244,1.0,4.0,81,0.00,,---,0.00,VWS V13.01,2013-01-23 08:19:00,
2013-01-23 02:24:00,-13.8,-17.9,30.66,West,261,1.0,6.0,81,0.00,,---,0.00,VWS V13.01,2013-01-23 08:24:00,
2013-01-23 02:29:00,-13.6,-17.7,30.66,West,261,2.0,6.0,81,0.00,,---,0.00,VWS V13.01,2013-01-23 08:29:00,
2013-01-23 02:34:00,-13.5,-17.6,30.66,WSW,257,3.0,4.0,81,0.00,,---,0.00,VWS V13.01,2013-01-23 08:34:00,
2013-01-23 02:39:00,-13.4,-17.5,30.66,West,260,2.0,6.0,81,0.00,,---,0.00,VWS V13.01,2013-01-23 08:39:00,
2013-01-23 02:57:00,-13.1,-17.2,30.67,WSW,248,3.0,6.0,81,0.00,,---,0.00,VWS V13.01,2013-01-23 08:57:00,
2013-01-23 03:02:00,-12.9,-17.1,30.65,SW,233,4.0,5.0,81,0.00,,---,0.00,VWS V13.01,2013-01-23 09:02:00,
2013-01-23 03:08:00,-12.7,-16.6,30.65,WSW,246,1.0,5.0,82,0.00,,---,0.00,VWS V13.01,2013-01-23 09:08:00,
2013-01-23 03:13:00,-12.6,-16.8,30.65,WSW,258,2.0,5.0,81,0.00,,---,0.00,VWS V13.01,2013-01-23 09:13:00,
2013-01-23 03:18:00,-12.5,-16.7,30.65,West,264,3.0,6.0,81,0.00,,---,0.00,VWS V13.01,2013-01-23 09:18:00,
2013-01-23 03:23:00,-12.5,-16.7,30.65,West,267,4.0,6.0,81,0.00,,---,0.00,VWS V13.01,2013-01-23 09:23:00,
2013-01-23 03:28:00,-12.4,-16.6,30.65,West,267,1.0,6.0,81,0.00,,---,0.00,VWS V13.01,2013-01-23 09:28:00,
2013-01-23 03:33:00,-12.3,-16.5,30.65,West,264,1.0,4.0,81,0.00,,---,0.00,VWS V13.01,2013-01-23 09:33:00,
2013-01-23 03:38:00,-12.2,-16.1,30.65,West,259,4.0,5.0,82,0.00,,---,0.00,VWS V13.01,2013-01-23 09:38:00,
2013-01-23 03:43:00,-12.0,-15.9,30.65,West,261,1.0,5.0,82,0.00,,---,0.00,VWS V13.01,2013-01-23 09:43:00,
2013-01-23 03:48:00,-11.8,-15.7,30.65,West,273,0.0,6.0,82,0.00,,---,0.00,VWS V13.01,2013-01-23 09:48:00,
2013-01-23 03:54:00,-11.7,-15.6,30.65,West,265,5.0,6.0,82,0.00,,---,0.00,VWS V13.01,2013-01-23 09:54:00,
2013-01-23 03:59:00,-11.6,-15.5,30.65,West,266,2.0,6.0,82,0.00,,---,0.00,VWS V13.01,2013-01-23 09:59:00,
2013-01-23 04:04:00,-11.5,-15.4,30.64,West,269,2.0,3.0,82,0.00,,---,0.00,VWS V13.01,2013-01-23 10:04:00,
2013-01-23 04:09:00,-11.5,-15.4,30.64,West,269,3.0,4.0,82,0.00,,---,0.00,VWS V13.01,2013-01-23 10:09:00,
2013-01-23 04:14:00,-11.4,-15.4,30.64,West,269,1.0,4.0,82,0.00,,---,0.00,VWS V13.01,2013-01-23 10:14:00,
2013-01-23 04:19:00,-11.4,-15.4,30.63,WSW,258,2.0,5.0,82,0.00,,---,0.00,VWS V13.01,2013-01-23 10:19:00,
2013-01-23 04:24:00,-11.5,-15.4,30.63,WSW,253,1.0,5.0,82,0.00,,---,0.00,VWS V13.01,2013-01-23 10:24:00,
2013-01-23 04:29:00,-11.5,-15.4,30.63,WSW,251,3.0,5.0,82,0.00,,---,0.00,VWS V13.01,2013-01-23 10:29:00,
2013-01-23 04:34:00,-11.5,-15.4,30.63,West,271,2.0,5.0,82,0.00,,---,0.00,VWS V13.01,2013-01-23 10:34:00,
2013-01-23 04:39:00,-11.6,-15.8,30.63,West,270,1.0,5.0,81,0.00,,---,0.00,VWS V13.01,2013-01-23 10:39:00,
2013-01-23 04:44:00,-11.7,-15.9,30.63,West,270,1.0,5.0,81,0.00,,---,0.00,VWS V13.01,2013-01-23 10:44:00,
2013-01-23 04:49:00,-11.8,-16.0,30.63,West,268,0.0,3.0,81,0.00,,---,0.00,VWS V13.01,2013-01-23 10:49:00,
2013-01-23 04:55:00,-11.9,-16.1,30.63,West,267,2.0,3.0,81,0.00,,---,0.00,VWS V13.01,2013-01-23 10:55:00,
2013-01-23 05:00:00,-12.1,-16.3,30.63,West,262,1.0,5.0,81,0.00,,---,0.00,VWS V13.01,2013-01-23 11:00:00,
2013-01-23 05:05:00,-12.1,-16.3,30.63,West,262,0.0,2.0,81,0.00,,---,0.00,VWS V13.01,2013-01-23 11:05:00,
2013-01-23 05:10:00,-12.0,-15.9,30.63,WSW,258,1.0,7.0,82,0.00,,---,0.00,VWS V13.01,2013-01-23 11:10:00,
2013-01-23 05:15:00,-11.9,-15.8,30.65,West,260,2.0,7.0,82,0.00,,---,0.00,VWS V13.01,2013-01-23 11:15:00,
2013-01-23 05:21:00,-11.7,-15.6,30.65,West,265,3.0,5.0,82,0.00,,---,0.00,VWS V13.01,2013-01-23 11:21:00,
2013-01-23 05:26:00,-11.6,-15.5,30.65,West,260,3.0,5.0,82,0.00,,---,0.00,VWS V13.01,2013-01-23 11:26:00,
2013-01-23 05:31:00,-11.6,-15.8,30.65,West,260,6.0,6.0,81,0.00,,---,0.00,VWS V13.01,2013-01-23 11:31:00,
2013-01-23 05:36:00,-11.7,-15.9,30.65,West,260,0.0,4.0,81,0.00,,---,0.00,VWS V13.01,2013-01-23 11:36:00,
2013-01-23 05:42:00,-11.7,-15.6,30.65,West,260,3.0,5.0,82,0.00,,---,0.00,VWS V13.01,2013-01-23 11:42:00,
2013-01-23 05:47:00,-11.8,-16.0,30.64,WSW,258,0.0,2.0,81,0.00,,---,0.00,VWS V13.01,2013-01-23 11:47:00,
2013-01-23 05:52:00,-12.0,-16.2,30.64,West,264,1.0,6.0,81,0.00,,---,0.00,VWS V13.01,2013-01-23 11:52:00,
2013-01-23 05:57:00,-12.1,-16.3,30.64,West,266,1.0,6.0,81,0.00,,---,0.00,VWS V13.01,2013-01-23 11:57:00,
2013-01-23 06:02:00,-12.2,-16.4,30.64,WSW,254,1.0,4.0,81,0.00,,---,0.00,VWS V13.01,2013-01-23 12:02:00,
2013-01-23 06:07:00,-12.3,-16.5,30.64,WSW,252,2.0,4.0,81,0.00,,---,0.00,VWS V13.01,2013-01-23 12:07:00,
2013-01-23 06:12:00,-12.5,-16.7,30.64,WSW,256,2.0,5.0,81,0.00,,---,0.00,VWS V13.01,2013-01-23 12:12:00,
2013-01-23 06:17:00,-12.5,-16.7,30.65,WSW,254,0.0,5.0,81,0.00,,---,0.00,VWS V13.01,2013-01-23 12:17:00,
2013-01-23 06:22:00,-12.6,-16.8,30.65,West,262,3.0,5.0,81,0.00,,---,0.00,VWS V13.01,2013-01-23 12:22:00,
2013-01-23 06:28:00,-12.7,-16.9,30.65,West,261,1.0,5.0,81,0.00,,---,0.00,VWS V13.01,2013-01-23 12:28:00,
2013-01-23 06:33:00,-12.8,-17.0,30.65,West,260,3.0,3.0,81,0.00,,---,0.00,VWS V13.01,2013-01-23 12:33:00,
2013-01-23 06:38:00,-12.9,-17.1,30.65,West,261,1.0,4.0,81,0.00,,---,0.00,VWS V13.01,2013-01-23 12:38:00,
2013-01-23 06:43:00,-13.0,-17.1,30.65,West,261,2.0,4.0,81,0.00,,---,0.00,VWS V13.01,2013-01-23 12:43:00,
2013-01-23 06:48:00,-13.1,-17.2,30.65,West,261,1.0,2.0,81,0.00,,---,0.00,VWS V13.01,2013-01-23 12:48:00,
2013-01-23 06:53:00,-13.2,-17.4,30.65,West,259,2.0,3.0,81,0.00,,---,0.00,VWS V13.01,2013-01-23 12:53:00,
2013-01-23 06:58:00,-13.3,-17.5,30.65,West,259,0.0,3.0,81,0.00,,---,0.00,VWS V13.01,2013-01-23 12:58:00,
2013-01-23 07:03:00,-13.3,-17.5,30.64,West,259,3.0,3.0,81,0.00,,---,0.00,VWS V13.01,2013-01-23 13:03:00,
2013-01-23 07:08:00,-13.3,-17.5,30.64,West,259,0.0,3.0,81,0.00,,---,0.00,VWS V13.01,2013-01-23 13:08:00,
2013-01-23 07:14:00,-13.4,-17.5,30.64,WSW,258,0.0,3.0,81,0.00,,---,0.00,VWS V13.01,2013-01-23 13:14:00,
2013-01-23 07:19:00,-13.4,-17.5,30.62,WSW,258,2.0,3.0,81,0.00,,---,0.00,VWS V13.01,2013-01-23 13:19:00,
2013-01-23 07:24:00,-13.4,-17.5,30.62,WSW,258,1.0,3.0,81,0.00,,---,0.00,VWS V13.01,2013-01-23 13:24:00,
2013-01-23 07:30:00,-13.4,-17.5,30.62,WSW,258,1.0,4.0,81,0.00,,---,0.00,VWS V13.01,2013-01-23 13:30:00,
2013-01-23 07:35:00,-13.3,-17.5,30.62,WSW,258,0.0,3.0,81,0.00,,---,0.00,VWS V13.01,2013-01-23 13:35:00,
2013-01-23 07:40:00,-13.3,-17.5,30.62,WSW,258,1.0,3.0,81,0.00,,---,0.00,VWS V13.01,2013-01-23 13:40:00,
2013-01-23 07:46:00,-13.4,-17.5,30.62,WSW,258,1.0,3.0,81,0.00,,---,0.00,VWS V13.01,2013-01-23 13:46:00,
2013-01-23 07:51:00,-13.4,-17.5,30.62,WSW,258,0.0,2.0,81,0.00,,---,0.00,VWS V13.01,2013-01-23 13:51:00,
2013-01-23 07:56:00,-13.4,-17.5,30.62,WSW,258,1.0,3.0,81,0.00,,---,0.00,VWS V13.01,2013-01-23 13:56:00,
2013-01-23 08:01:00,-13.4,-17.5,30.62,WSW,258,1.0,3.0,81,0.00,,---,0.00,VWS V13.01,2013-01-23 14:01:00,
2013-01-23 08:07:00,-13.4,-17.5,30.62,WSW,258,1.0,2.0,81,0.00,,---,0.00,VWS V13.01,2013-01-23 14:07:00,
2013-01-23 08:12:00,-13.4,-17.5,30.62,WSW,258,0.0,2.0,81,0.00,,---,0.00,VWS V13.01,2013-01-23 14:12:00,
2013-01-23 08:17:00,-13.3,-17.5,30.63,WSW,258,1.0,3.0,81,0.00,,---,0.00,VWS V13.01,2013-01-23 14:17:00,
2013-01-23 08:22:00,-13.2,-17.4,30.63,WSW,258,1.0,3.0,81,0.00,,---,0.00,VWS V13.01,2013-01-23 14:22:00,
2013-01-23 08:28:00,-13.0,-17.1,30.63,WSW,258,2.0,3.0,81,0.00,,---,0.00,VWS V13.01,2013-01-23 14:28:00,
2013-01-23 08:33:00,-12.9,-17.1,30.62,West,259,1.0,2.0,81,0.00,,---,0.00,VWS V13.01,2013-01-23 14:33:00,
2013-01-23 08:38:00,-12.7,-16.9,30.62,WSW,258,1.0,4.0,81,0.00,,---,0.00,VWS V13.01,2013-01-23 14:38:00,
2013-01-23 08:43:00,-12.5,-16.7,30.62,West,259,0.0,4.0,81,0.00,,---,0.00,VWS V13.01,2013-01-23 14:43:00,
2013-01-23 08:49:00,-12.2,-16.1,30.61,WSW,258,0.0,3.0,82,0.00,,---,0.00,VWS V13.01,2013-01-23 14:49:00,
2013-01-23 08:54:00,-11.7,-15.6,30.61,West,259,1.0,3.0,82,0.00,,---,0.00,VWS V13.01,2013-01-23 14:54:00,
2013-01-23 08:59:00,-11.3,-15.2,30.61,West,260,4.0,4.0,82,0.00,,---,0.00,VWS V13.01,2013-01-23 14:59:00,
2013-01-23 09:04:00,-10.9,-14.9,30.61,West,263,0.0,2.0,82,0.00,,---,0.00,VWS V13.01,2013-01-23 15:04:00,
2013-01-23 09:10:00,-10.4,-14.4,30.61,West,267,2.0,4.0,82,0.00,,---,0.00,VWS V13.01,2013-01-23 15:10:00,
2013-01-23 09:15:00,-10.1,-14.1,30.61,WNW,296,1.0,6.0,82,0.00,,---,0.00,VWS V13.01,2013-01-23 15:15:00,
2013-01-23 09:20:00,-9.6,-13.6,30.61,WNW,296,0.0,3.0,82,0.00,,---,0.00,VWS V13.01,2013-01-23 15:20:00,
2013-01-23 09:25:00,-9.0,-12.8,30.61,WNW,294,1.0,4.0,83,0.00,,---,0.00,VWS V13.01,2013-01-23 15:25:00,
2013-01-23 09:31:00,-8.7,-12.7,30.59,WNW,291,0.0,5.0,82,0.00,,---,0.00,VWS V13.01,2013-01-23 15:31:00,
2013-01-23 09:36:00,-8.4,-12.4,30.59,WNW,298,1.0,8.0,82,0.00,,---,0.00,VWS V13.01,2013-01-23 15:36:00,
2013-01-23 09:41:00,-8.4,-12.4,30.59,NW,315,7.0,8.0,82,0.00,,---,0.00,VWS V13.01,2013-01-23 15:41:00,
2013-01-23 09:46:00,-8.3,-12.3,30.61,NW,317,2.0,3.0,82,0.00,,---,0.00,VWS V13.01,2013-01-23 15:46:00,
2013-01-23 09:52:00,-8.2,-12.2,30.61,NW,320,7.0,10.0,82,0.00,,---,0.00,VWS V13.01,2013-01-23 15:52:00,
2013-01-23 09:57:00,-8.2,-12.2,30.61,NW,318,3.0,12.0,82,0.00,,---,0.00,VWS V13.01,2013-01-23 15:57:00,
2013-01-23 10:02:00,-8.2,-12.2,30.62,NNW,339,2.0,6.0,82,0.00,,---,0.00,VWS V13.01,2013-01-23 16:02:00,
2013-01-23 10:07:00,-8.1,-12.1,30.62,NNW,333,5.0,9.0,82,0.00,,---,0.00,VWS V13.01,2013-01-23 16:07:00,
2013-01-23 10:13:00,-7.9,-11.9,30.62,NNW,327,5.0,10.0,82,0.00,,---,0.00,VWS V13.01,2013-01-23 16:13:00,
2013-01-23 10:18:00,-7.8,-11.8,30.59,West,281,4.0,7.0,82,0.00,,---,0.00,VWS V13.01,2013-01-23 16:18:00,
2013-01-23 10:23:00,-8.0,-12.0,30.59,WNW,294,4.0,9.0,82,0.00,,---,0.00,VWS V13.01,2013-01-23 16:23:00,
2013-01-23 10:29:00,-8.1,-12.1,30.59,NW,311,5.0,9.0,82,0.00,,---,0.00,VWS V13.01,2013-01-23 16:29:00,
2013-01-23 10:34:00,-8.1,-12.1,30.59,NNW,330,7.0,9.0,82,0.00,,---,0.00,VWS V13.01,2013-01-23 16:34:00,
2013-01-23 10:39:00,-8.1,-12.1,30.59,NNW,332,6.0,13.0,82,0.00,,---,0.00,VWS V13.01,2013-01-23 16:39:00,
2013-01-23 10:44:00,-8.1,-12.1,30.59,WNW,301,3.0,13.0,82,0.00,,---,0.00,VWS V13.01,2013-01-23 16:44:00,
2013-01-23 10:49:00,-8.1,-12.1,30.60,NW,311,6.0,9.0,82,0.00,,---,0.00,VWS V13.01,2013-01-23 16:49:00,
2013-01-23 10:55:00,-8.1,-12.1,30.60,North,355,7.0,9.0,82,0.00,,---,0.00,VWS V13.01,2013-01-23 16:55:00,
2013-01-23 11:00:00,-8.3,-12.6,30.60,North,360,4.0,13.0,81,0.00,,---,0.00,VWS V13.01,2013-01-23 17:00:00,
2013-01-23 11:05:00,-8.3,-12.6,30.61,NNW,332,7.0,10.0,81,0.00,,---,0.00,VWS V13.01,2013-01-23 17:05:00,
2013-01-23 11:10:00,-8.2,-12.2,30.61,NW,323,4.0,10.0,82,0.00,,---,0.00,VWS V13.01,2013-01-23 17:10:00,
2013-01-23 11:15:00,-8.0,-12.0,30.61,NW,305,4.0,11.0,82,0.00,,---,0.00,VWS V13.01,2013-01-23 17:15:00,
2013-01-23 11:21:00,-7.8,-11.8,30.62,NW,326,3.0,7.0,82,0.00,,---,0.00,VWS V13.01,2013-01-23 17:21:00,
2013-01-23 11:26:00,-7.5,-11.5,30.62,NW,326,7.0,8.0,82,0.00,,---,0.00,VWS V13.01,2013-01-23 17:26:00,
2013-01-23 11:31:00,-7.3,-11.3,30.61,West,279,4.0,10.0,82,0.00,,---,0.00,VWS V13.01,2013-01-23 17:31:00,
2013-01-23 11:36:00,-7.2,-11.2,30.61,West,276,3.0,9.0,82,0.00,,---,0.00,VWS V13.01,2013-01-23 17:36:00,
2013-01-23 11:42:00,-7.1,-11.1,30.61,NW,319,5.0,10.0,82,0.00,,---,0.00,VWS V13.01,2013-01-23 17:42:00,
2013-01-23 11:47:00,-6.9,-11.2,30.61,NNW,327,5.0,5.0,81,0.00,,---,0.00,VWS V13.01,2013-01-23 17:47:00,
2013-01-23 11:52:00,-6.8,-10.8,30.61,North,5,7.0,11.0,82,0.00,,---,0.00,VWS V13.01,2013-01-23 17:52:00,
2013-01-23 11:57:00,-6.8,-11.1,30.61,NNW,348,6.0,13.0,81,0.00,,---,0.00,VWS V13.01,2013-01-23 17:57:00,
2013-01-23 12:03:00,-6.9,-11.2,30.62,NNW,335,2.0,9.0,81,0.00,,---,0.00,VWS V13.01,2013-01-23 18:03:00,
2013-01-23 12:08:00,-6.6,-10.6,30.62,NW,306,4.0,11.0,82,0.00,,---,0.00,VWS V13.01,2013-01-23 18:08:00,
2013-01-23 12:13:00,-6.5,-10.8,30.62,North,355,4.0,11.0,81,0.00,,---,0.00,VWS V13.01,2013-01-23 18:13:00,
2013-01-23 12:19:00,-6.3,-10.6,30.62,NW,322,5.0,6.0,81,0.00,,---,0.00,VWS V13.01,2013-01-23 18:19:00,
2013-01-23 12:24:00,-6.1,-10.4,30.62,NNE,13,6.0,10.0,81,0.00,,---,0.00,VWS V13.01,2013-01-23 18:24:00,
2013-01-23 12:29:00,-6.1,-10.4,30.62,NNW,333,10.0,10.0,81,0.00,,---,0.00,VWS V13.01,2013-01-23 18:29:00,
2013-01-23 12:34:00,-6.3,-10.6,30.62,WNW,303,3.0,10.0,81,0.00,,---,0.00,VWS V13.01,2013-01-23 18:34:00,
2013-01-23 12:40:00,-6.2,-10.5,30.62,West,281,7.0,13.0,81,0.00,,---,0.00,VWS V13.01,2013-01-23 18:40:00,
2013-01-23 12:45:00,-6.1,-10.1,30.62,WNW,297,4.0,13.0,82,0.00,,---,0.00,VWS V13.01,2013-01-23 18:45:00,
2013-01-23 12:50:00,-6.1,-10.4,30.63,North,355,5.0,11.0,81,0.00,,---,0.00,VWS V13.01,2013-01-23 18:50:00,
2013-01-23 12:55:00,-5.9,-10.0,30.63,NNW,334,9.0,12.0,82,0.00,,---,0.00,VWS V13.01,2013-01-23 18:55:00,
2013-01-23 13:01:00,-6.0,-10.3,30.64,WNW,295,3.0,15.0,81,0.00,,---,0.00,VWS V13.01,2013-01-23 19:01:00,
2013-01-23 13:06:00,-6.2,-10.5,30.64,West,269,5.0,14.0,81,0.00,,---,0.00,VWS V13.01,2013-01-23 19:06:00,
2013-01-23 13:11:00,-6.3,-10.6,30.64,North,5,8.0,14.0,81,0.00,,---,0.00,VWS V13.01,2013-01-23 19:11:00,
2013-01-23 13:16:00,-6.3,-10.6,30.67,NNW,331,8.0,14.0,81,0.00,,---,0.00,VWS V13.01,2013-01-23 19:16:00,
2013-01-23 13:22:00,-6.4,-10.7,30.67,NNW,339,9.0,17.0,81,0.00,,---,0.00,VWS V13.01,2013-01-23 19:22:00,
2013-01-23 13:27:00,-6.7,-11.2,30.67,NW,318,13.0,17.0,80,0.00,,---,0.00,VWS V13.01,2013-01-23 19:27:00,
2013-01-23 13:32:00,-6.7,-11.0,30.68,NW,314,5.0,9.0,81,0.00,,---,0.00,VWS V13.01,2013-01-23 19:32:00,
2013-01-23 13:37:00,-6.5,-8.2,30.68,NW,322,11.0,16.0,92,0.00,,---,0.00,VWS V13.01,2013-01-23 19:37:00,
2013-01-23 13:43:00,-6.5,-8.2,30.68,NW,319,6.0,16.0,92,0.00,,---,0.00,VWS V13.01,2013-01-23 19:43:00,
2013-01-23 13:48:00,-6.3,-10.9,30.70,North,360,5.0,13.0,80,0.00,,---,0.00,VWS V13.01,2013-01-23 19:48:00,
2013-01-23 13:53:00,-6.5,-11.0,30.70,NNW,338,7.0,17.0,80,0.00,,---,0.00,VWS V13.01,2013-01-23 19:53:00,
2013-01-23 13:58:00,-6.6,-11.1,30.70,NNW,329,6.0,17.0,80,0.00,,---,0.00,VWS V13.01,2013-01-23 19:58:00,
2013-01-23 14:04:00,-6.5,-11.0,30.72,NW,313,5.0,15.0,80,0.00,,---,0.00,VWS V13.01,2013-01-23 20:04:00,
2013-01-23 14:09:00,-6.5,-11.0,30.72,NW,322,10.0,15.0,80,0.00,,---,0.00,VWS V13.01,2013-01-23 20:09:00,
2013-01-23 14:14:00,-6.5,-8.2,30.72,NW,306,6.0,15.0,92,0.00,,---,0.00,VWS V13.01,2013-01-23 20:14:00,
2013-01-23 14:19:00,-6.5,-11.0,30.74,WNW,296,10.0,13.0,80,0.00,,---,0.00,VWS V13.01,2013-01-23 20:19:00,
2013-01-23 14:25:00,-6.6,-10.9,30.74,NNW,339,12.0,13.0,81,0.00,,---,0.00,VWS V13.01,2013-01-23 20:25:00,
2013-01-23 14:30:00,-6.9,-11.4,30.74,NW,319,9.0,17.0,80,0.00,,---,0.00,VWS V13.01,2013-01-23 20:30:00,
2013-01-23 14:35:00,-7.1,-11.4,30.76,WNW,294,5.0,20.0,81,0.00,,---,0.00,VWS V13.01,2013-01-23 20:35:00,
2013-01-23 14:40:00,-7.1,-11.4,30.76,NW,317,5.0,20.0,81,0.00,,---,0.00,VWS V13.01,2013-01-23 20:40:00,
2013-01-23 14:46:00,-7.1,-11.4,30.78,WNW,296,7.0,20.0,81,0.00,,---,0.00,VWS V13.01,2013-01-23 20:46:00,
2013-01-23 14:51:00,-7.0,-11.3,30.78,NNW,329,9.0,14.0,81,0.00,,---,0.00,VWS V13.01,2013-01-23 20:51:00,
2013-01-23 14:56:00,-7.1,-11.6,30.78,NNW,336,8.0,19.0,80,0.00,,---,0.00,VWS V13.01,2013-01-23 20:56:00,
2013-01-23 15:01:00,-7.3,-11.8,30.80,North,5,3.0,19.0,80,0.00,,---,0.00,VWS V13.01,2013-01-23 21:01:00,
2013-01-23 15:07:00,-7.4,-11.9,30.80,North,349,6.0,20.0,80,0.00,,---,0.00,VWS V13.01,2013-01-23 21:07:00,
2013-01-23 15:12:00,-7.3,-11.8,30.80,NNW,340,7.0,20.0,80,0.00,,---,0.00,VWS V13.01,2013-01-23 21:12:00,
2013-01-23 15:17:00,-7.1,-11.6,30.80,NNW,346,5.0,11.0,80,0.00,,---,0.00,VWS V13.01,2013-01-23 21:17:00,
2013-01-23 15:22:00,-7.2,-11.7,30.80,NNW,333,9.0,16.0,80,0.00,,---,0.00,VWS V13.01,2013-01-23 21:22:00,
2013-01-23 15:28:00,-7.3,-11.8,30.80,NW,309,6.0,20.0,80,0.00,,---,0.00,VWS V13.01,2013-01-23 21:28:00,
2013-01-23 15:33:00,-7.5,-12.0,30.81,NNW,340,10.0,12.0,80,0.00,,---,0.00,VWS V13.01,2013-01-23 21:33:00,
2013-01-23 15:38:00,-7.6,-12.1,30.81,NW,321,10.0,18.0,80,0.00,,---,0.00,VWS V13.01,2013-01-23 21:38:00,
2013-01-23 15:43:00,-7.7,-12.2,30.81,WNW,290,3.0,18.0,80,0.00,,---,0.00,VWS V13.01,2013-01-23 21:43:00,
2013-01-23 15:49:00,-7.8,-12.3,30.85,NW,319,0.0,17.0,80,0.00,,---,0.00,VWS V13.01,2013-01-23 21:49:00,
2013-01-23 15:54:00,-8.0,-12.5,30.85,North,355,11.0,17.0,80,0.00,,---,0.00,VWS V13.01,2013-01-23 21:54:00,
2013-01-23 15:59:00,-8.1,-12.6,30.85,NNW,333,9.0,17.0,80,0.00,,---,0.00,VWS V13.01,2013-01-23 21:59:00,
2013-01-23 16:04:00,-8.3,-12.8,30.86,NNW,340,12.0,17.0,80,0.00,,---,0.00,VWS V13.01,2013-01-23 22:04:00,
2013-01-23 16:10:00,-8.4,-12.9,30.86,NNW,340,5.0,17.0,80,0.00,,---,0.00,VWS V13.01,2013-01-23 22:10:00,
2013-01-23 16:15:00,-8.6,-13.1,30.86,NNW,333,10.0,17.0,80,0.00,,---,0.00,VWS V13.01,2013-01-23 22:15:00,
2013-01-23 16:20:00,-8.7,-13.2,30.87,NW,312,11.0,13.0,80,0.00,,---,0.00,VWS V13.01,2013-01-23 22:20:00,
2013-01-23 16:26:00,-8.9,-13.4,30.87,NW,320,5.0,13.0,80,0.00,,---,0.00,VWS V13.01,2013-01-23 22:26:00,
2013-01-23 16:31:00,-9.1,-13.6,30.89,NNW,340,11.0,17.0,80,0.00,,---,0.00,VWS V13.01,2013-01-23 22:31:00,
2013-01-23 16:36:00,-9.2,-13.7,30.89,WNW,290,9.0,16.0,80,0.00,,---,0.00,VWS V13.01,2013-01-23 22:36:00,
2013-01-23 16:41:00,-9.4,-13.9,30.89,NNW,333,2.0,16.0,80,0.00,,---,0.00,VWS V13.01,2013-01-23 22:41:00,
2013-01-23 16:46:00,-9.6,-14.1,30.93,NW,308,10.0,19.0,80,0.00,,---,0.00,VWS V13.01,2013-01-23 22:46:00,
2013-01-23 16:52:00,-9.7,-14.2,30.93,NW,317,6.0,14.0,80,0.00,,---,0.00,VWS V13.01,2013-01-23 22:52:00,
2013-01-23 16:57:00,-9.8,-14.3,30.93,NNW,333,9.0,14.0,80,0.00,,---,0.00,VWS V13.01,2013-01-23 22:57:00,
2013-01-23 17:02:00,-9.9,-14.4,30.94,NNE,12,6.0,11.0,80,0.00,,---,0.00,VWS V13.01,2013-01-23 23:02:00,
2013-01-23 17:07:00,-10.0,-14.5,30.94,NW,321,4.0,16.0,80,0.00,,---,0.00,VWS V13.01,2013-01-23 23:07:00,
2013-01-23 17:13:00,-10.1,-14.6,30.94,North,360,6.0,16.0,80,0.00,,---,0.00,VWS V13.01,2013-01-23 23:13:00,
2013-01-23 17:18:00,-10.3,-14.5,30.95,NNW,336,8.0,14.0,81,0.00,,---,0.00,VWS V13.01,2013-01-23 23:18:00,
2013-01-23 17:23:00,-10.3,-14.5,30.95,NNW,335,5.0,17.0,81,0.00,,---,0.00,VWS V13.01,2013-01-23 23:23:00,
2013-01-23 17:28:00,-10.4,-14.6,30.95,NNW,340,9.0,17.0,81,0.00,,---,0.00,VWS V13.01,2013-01-23 23:28:00,
2013-01-23 17:34:00,-10.5,-14.9,30.97,North,9,7.0,11.0,80,0.00,,---,0.00,VWS V13.01,2013-01-23 23:34:00,
2013-01-23 17:39:00,-10.6,-14.8,30.97,North,350,5.0,16.0,81,0.00,,---,0.00,VWS V13.01,2013-01-23 23:39:00,
2013-01-23 17:44:00,-10.8,-15.0,30.97,NNE,14,6.0,16.0,81,0.00,,---,0.00,VWS V13.01,2013-01-23 23:44:00,
2013-01-23 17:49:00,-10.9,-15.3,30.97,NW,315,3.0,16.0,80,0.00,,---,0.00,VWS V13.01,2013-01-23 23:49:00,
2013-01-23 17:55:00,-11.1,-15.5,30.97,North,5,11.0,19.0,80,0.00,,---,0.00,VWS V13.01,2013-01-23 23:55:00,
2013-01-23 18:00:00,-11.2,-15.6,30.97,NNW,327,5.0,19.0,80,0.00,,---,0.00,VWS V13.01,2013-01-24 00:00:00,
2013-01-23 18:05:00,-11.3,-15.7,30.99,North,5,3.0,16.0,80,0.00,,---,0.00,VWS V13.01,2013-01-24 00:05:00,
2013-01-23 18:11:00,-11.5,-16.2,30.99,NNW,327,7.0,18.0,79,0.00,,---,0.00,VWS V13.01,2013-01-24 00:11:00,
2013-01-23 18:16:00,-11.6,-16.3,31.02,North,360,12.0,18.0,79,0.00,,---,0.00,VWS V13.01,2013-01-24 00:16:00,
2013-01-23 18:21:00,-11.7,-16.1,31.02,NNW,339,11.0,17.0,80,0.00,,---,0.00,VWS V13.01,2013-01-24 00:21:00,
2013-01-23 18:26:00,-11.9,-16.6,31.02,NNW,345,6.0,17.0,79,0.00,,---,0.00,VWS V13.01,2013-01-24 00:26:00,
2013-01-23 18:31:00,-12.1,-16.8,31.03,NNW,331,9.0,17.0,79,0.00,,---,0.00,VWS V13.01,2013-01-24 00:31:00,
2013-01-23 18:36:00,-12.2,-16.9,31.03,NNE,17,10.0,13.0,79,0.00,,---,0.00,VWS V13.01,2013-01-24 00:36:00,
2013-01-23 18:42:00,-12.4,-16.8,31.03,North,11,6.0,14.0,80,0.00,,---,0.00,VWS V13.01,2013-01-24 00:42:00,
2013-01-23 18:47:00,-12.5,-17.1,31.06,North,360,7.0,10.0,79,0.00,,---,0.00,VWS V13.01,2013-01-24 00:47:00,
2013-01-23 18:52:00,-12.7,-17.4,31.06,NNW,338,3.0,11.0,79,0.00,,---,0.00,VWS V13.01,2013-01-24 00:52:00,
2013-01-23 18:58:00,-12.9,-17.5,31.06,NW,321,3.0,11.0,79,0.00,,---,0.00,VWS V13.01,2013-01-24 00:58:00,
2013-01-23 19:03:00,-13.1,-17.5,31.07,NW,323,3.0,7.0,80,0.00,,---,0.00,VWS V13.01,2013-01-24 01:03:00,
2013-01-23 19:08:00,-13.2,-17.6,31.07,NW,320,6.0,16.0,80,0.00,,---,0.00,VWS V13.01,2013-01-24 01:08:00,
2013-01-23 19:13:00,-13.3,-17.7,31.07,North,5,5.0,16.0,80,0.00,,---,0.00,VWS V13.01,2013-01-24 01:13:00,
2013-01-23 19:19:00,-13.5,-17.9,31.09,NNW,342,2.0,10.0,80,0.00,,---,0.00,VWS V13.01,2013-01-24 01:19:00,
2013-01-23 19:24:00,-13.6,-18.0,31.09,NNW,339,2.0,10.0,80,0.00,,---,0.00,VWS V13.01,2013-01-24 01:24:00,
2013-01-23 19:29:00,-13.8,-18.2,31.09,North,360,7.0,13.0,80,0.00,,---,0.00,VWS V13.01,2013-01-24 01:29:00,
2013-01-23 19:35:00,-14.0,-18.4,31.10,North,5,0.0,12.0,80,0.00,,---,0.00,VWS V13.01,2013-01-24 01:35:00,
2013-01-23 19:40:00,-14.1,-18.7,31.10,North,5,1.0,15.0,79,0.00,,---,0.00,VWS V13.01,2013-01-24 01:40:00,
2013-01-23 19:45:00,-14.3,-18.9,31.10,NE,36,7.0,15.0,79,0.00,,---,0.00,VWS V13.01,2013-01-24 01:45:00,
2013-01-23 19:50:00,-14.5,-19.1,31.12,NNE,19,7.0,10.0,79,0.00,,---,0.00,VWS V13.01,2013-01-24 01:50:00,
2013-01-23 19:56:00,-14.6,-19.2,31.12,North,9,2.0,10.0,79,0.00,,---,0.00,VWS V13.01,2013-01-24 01:56:00,
2013-01-23 20:01:00,-14.8,-19.4,31.15,NW,321,4.0,10.0,79,0.00,,---,0.00,VWS V13.01,2013-01-24 02:01:00,
2013-01-23 20:06:00,-15.0,-19.6,31.15,NNW,327,5.0,9.0,79,0.00,,---,0.00,VWS V13.01,2013-01-24 02:06:00,
2013-01-23 20:12:00,-15.2,-19.8,31.15,North,355,8.0,11.0,79,0.00,,---,0.00,VWS V13.01,2013-01-24 02:12:00,
2013-01-23 20:17:00,-15.4,-20.0,31.14,NNW,343,3.0,4.0,79,0.00,,---,0.00,VWS V13.01,2013-01-24 02:17:00,
2013-01-23 20:22:00,-15.5,-20.1,31.14,North,355,3.0,10.0,79,0.00,,---,0.00,VWS V13.01,2013-01-24 02:22:00,
2013-01-23 20:27:00,-15.7,-20.3,31.14,North,5,5.0,10.0,79,0.00,,---,0.00,VWS V13.01,2013-01-24 02:27:00,
2013-01-23 20:33:00,-15.8,-20.4,31.15,West,266,3.0,7.0,79,0.00,,---,0.00,VWS V13.01,2013-01-24 02:33:00,
2013-01-23 20:38:00,-16.0,-20.6,31.15,North,355,4.0,11.0,79,0.00,,---,0.00,VWS V13.01,2013-01-24 02:38:00,
2013-01-23 20:43:00,-16.1,-20.7,31.15,NNW,338,5.0,12.0,79,0.00,,---,0.00,VWS V13.01,2013-01-24 02:43:00,
2013-01-23 20:48:00,-16.2,-20.8,31.16,NNW,333,5.0,9.0,79,0.00,,---,0.00,VWS V13.01,2013-01-24 02:48:00,
2013-01-23 20:54:00,-16.4,-21.0,31.16,NW,304,3.0,10.0,79,0.00,,---,0.00,VWS V13.01,2013-01-24 02:54:00,
2013-01-23 20:59:00,-16.5,-21.1,31.16,NW,319,3.0,10.0,79,0.00,,---,0.00,VWS V13.01,2013-01-24 02:59:00,
2013-01-23 21:04:00,-16.7,-21.2,31.19,NNW,344,12.0,12.0,79,0.00,,---,0.00,VWS V13.01,2013-01-24 03:04:00,
2013-01-23 21:09:00,-16.9,-21.5,31.19,NNW,338,4.0,12.0,79,0.00,,---,0.00,VWS V13.01,2013-01-24 03:09:00,
2013-01-23 21:15:00,-17.1,-21.6,31.19,NNW,348,1.0,12.0,79,0.00,,---,0.00,VWS V13.01,2013-01-24 03:15:00,
2013-01-23 21:20:00,-17.2,-21.7,31.16,NNW,327,2.0,12.0,79,0.00,,---,0.00,VWS V13.01,2013-01-24 03:20:00,
2013-01-23 21:25:00,-17.3,-21.8,31.16,NW,326,4.0,12.0,79,0.00,,---,0.00,VWS V13.01,2013-01-24 03:25:00,
2013-01-23 21:31:00,-17.4,-21.9,31.16,NW,316,2.0,12.0,79,0.00,,---,0.00,VWS V13.01,2013-01-24 03:31:00,
2013-01-23 21:36:00,-17.5,-22.0,31.16,NNW,336,6.0,11.0,79,0.00,,---,0.00,VWS V13.01,2013-01-24 03:36:00,
2013-01-23 21:41:00,-17.6,-22.1,31.16,NW,321,1.0,11.0,79,0.00,,---,0.00,VWS V13.01,2013-01-24 03:41:00,
2013-01-23 21:46:00,-17.7,-22.2,31.19,NNW,340,3.0,13.0,79,0.00,,---,0.00,VWS V13.01,2013-01-24 03:46:00,
2013-01-23 21:52:00,-17.8,-22.3,31.19,NNW,330,3.0,11.0,79,0.00,,---,0.00,VWS V13.01,2013-01-24 03:52:00,
2013-01-23 21:57:00,-17.8,-22.3,31.19,NW,323,4.0,11.0,79,0.00,,---,0.00,VWS V13.01,2013-01-24 03:57:00,
2013-01-23 22:02:00,-18.0,-22.5,31.19,NNW,334,2.0,6.0,79,0.00,,---,0.00,VWS V13.01,2013-01-24 04:02:00,
2013-01-23 22:07:00,-18.1,-22.6,31.19,NNW,333,4.0,11.0,79,0.00,,---,0.00,VWS V13.01,2013-01-24 04:07:00,
2013-01-23 22:12:00,-18.2,-22.7,31.19,NNW,332,3.0,11.0,79,0.00,,---,0.00,VWS V13.01,2013-01-24 04:12:00,
2013-01-23 22:18:00,-18.3,-22.8,31.19,NNW,334,4.0,6.0,79,0.00,,---,0.00,VWS V13.01,2013-01-24 04:18:00,
2013-01-23 22:23:00,-18.5,-23.0,31.19,NNW,338,2.0,7.0,79,0.00,,---,0.00,VWS V13.01,2013-01-24 04:23:00,
2013-01-23 22:28:00,-18.6,-23.1,31.19,NW,326,2.0,11.0,79,0.00,,---,0.00,VWS V13.01,2013-01-24 04:28:00,
2013-01-23 22:34:00,-18.7,-23.2,31.21,NNW,339,3.0,7.0,79,0.00,,---,0.00,VWS V13.01,2013-01-24 04:34:00,
2013-01-23 22:39:00,-18.8,-23.5,31.21,NNW,342,2.0,11.0,78,0.00,,---,0.00,VWS V13.01,2013-01-24 04:39:00,
2013-01-23 22:44:00,-19.0,-23.5,31.21,NNW,344,6.0,11.0,79,0.00,,---,0.00,VWS V13.01,2013-01-24 04:44:00,
2013-01-23 22:49:00,-19.1,-23.6,31.21,NNW,346,9.0,12.0,79,0.00,,---,0.00,VWS V13.01,2013-01-24 04:49:00,
2013-01-23 22:54:00,-19.1,-23.6,31.21,North,355,6.0,12.0,79,0.00,,---,0.00,VWS V13.01,2013-01-24 04:54:00,
2013-01-23 23:00:00,-19.2,-23.7,31.21,NNW,337,4.0,12.0,79,0.00,,---,0.00,VWS V13.01,2013-01-24 05:00:00,
2013-01-23 23:01:00,-19.2,-23.7,31.22,NNW,336,5.0,12.0,79,0.00,,---,0.00,VWS V13.01,2013-01-24 05:01:00,
2013-01-23 23:04:00,-19.2,-23.7,31.22,NNW,331,5.0,7.0,79,0.00,,---,0.00,VWS V13.01,2013-01-24 05:04:00,
2013-01-23 23:05:00,-19.2,-23.9,31.22,NNW,332,4.0,7.0,78,0.00,,---,0.00,VWS V13.01,2013-01-24 05:05:00,
2013-01-23 23:10:00,-19.3,-24.0,31.22,NNW,348,3.0,10.0,78,0.00,,---,0.00,VWS V13.01,2013-01-24 05:10:00,
2013-01-23 23:15:00,-19.4,-23.9,31.22,NNW,333,2.0,12.0,79,0.00,,---,0.00,VWS V13.01,2013-01-24 05:15:00,
2013-01-23 23:20:00,-19.5,-24.2,31.22,North,355,5.0,10.0,78,0.00,,---,0.00,VWS V13.01,2013-01-24 05:20:00,
2013-01-23 23:26:00,-19.6,-24.3,31.22,North,349,1.0,10.0,78,0.00,,---,0.00,VWS V13.01,2013-01-24 05:26:00,
2013-01-23 23:31:00,-19.6,-24.3,31.23,NW,318,2.0,10.0,78,0.00,,---,0.00,VWS V13.01,2013-01-24 05:31:00,
2013-01-23 23:36:00,-19.7,-24.4,31.23,NNW,342,7.0,9.0,78,0.00,,---,0.00,VWS V13.01,2013-01-24 05:36:00,
2013-01-23 23:41:00,-19.8,-24.5,31.23,North,5,4.0,11.0,78,0.00,,---,0.00,VWS V13.01,2013-01-24 05:41:00,
2013-01-23 23:46:00,-19.8,-24.5,31.25,NW,311,2.0,11.0,78,0.00,,---,0.00,VWS V13.01,2013-01-24 05:46:00,
2013-01-23 23:52:00,-19.9,-24.6,31.25,NW,319,5.0,10.0,78,0.00,,---,0.00,VWS V13.01,2013-01-24 05:52:00,
2013-01-23 23:57:00,-20.0,-24.7,31.25,NNW,327,5.0,10.0,78,0.00,,---,0.00,VWS V13.01,2013-01-24 05:57:00,